sensor_id;sensor_type;location;lat;lon;timestamp;P1;durP1;ratioP1;P2;durP2;ratioP2
81229;SDS011;70701;44.452;18.652;2024-01-15T00:01:04;648.57;;;363.23;;
81229;SDS011;70701;44.452;18.652;2024-01-15T00:03:29;663.33;;;378.27;;
81229;SDS011;70701;44.452;18.652;2024-01-15T00:05:55;596.40;;;337.50;;
81229;SDS011;70701;44.452;18.652;2024-01-15T00:08:26;602.67;;;336.67;;
81229;SDS011;70701;44.452;18.652;2024-01-15T00:10:58;562.50;;;320.20;;
81229;SDS011;70701;44.452;18.652;2024-01-15T00:13:26;540.80;;;303.40;;
81229;SDS011;70701;44.452;18.652;2024-01-15T00:15:52;510.30;;;279.27;;
81229;SDS011;70701;44.452;18.652;2024-01-15T00:18:18;496.30;;;272.00;;
81229;SDS011;70701;44.452;18.652;2024-01-15T00:20:43;489.20;;;261.33;;
81229;SDS011;70701;44.452;18.652;2024-01-15T00:23:15;437.00;;;241.40;;
81229;SDS011;70701;44.452;18.652;2024-01-15T00:25:40;448.77;;;242.43;;
81229;SDS011;70701;44.452;18.652;2024-01-15T00:28:12;420.57;;;217.40;;
81229;SDS011;70701;44.452;18.652;2024-01-15T00:30:50;358.30;;;171.67;;
81229;SDS011;70701;44.452;18.652;2024-01-15T00:33:22;393.77;;;197.73;;
81229;SDS011;70701;44.452;18.652;2024-01-15T00:35:50;388.00;;;200.43;;
81229;SDS011;70701;44.452;18.652;2024-01-15T00:38:16;404.13;;;200.40;;
81229;SDS011;70701;44.452;18.652;2024-01-15T00:40:42;370.87;;;187.37;;
81229;SDS011;70701;44.452;18.652;2024-01-15T00:43:07;397.87;;;186.77;;
81229;SDS011;70701;44.452;18.652;2024-01-15T00:45:36;359.17;;;180.53;;
81229;SDS011;70701;44.452;18.652;2024-01-15T00:48:09;363.00;;;172.70;;
81229;SDS011;70701;44.452;18.652;2024-01-15T00:50:37;371.03;;;181.00;;
81229;SDS011;70701;44.452;18.652;2024-01-15T00:53:03;496.30;;;277.53;;
81229;SDS011;70701;44.452;18.652;2024-01-15T00:55:28;564.50;;;305.33;;
81229;SDS011;70701;44.452;18.652;2024-01-15T00:57:54;467.37;;;245.90;;
81229;SDS011;70701;44.452;18.652;2024-01-15T01:00:20;425.70;;;219.23;;
81229;SDS011;70701;44.452;18.652;2024-01-15T01:02:46;474.67;;;255.27;;
81229;SDS011;70701;44.452;18.652;2024-01-15T01:05:11;411.70;;;219.43;;
81229;SDS011;70701;44.452;18.652;2024-01-15T01:07:37;421.03;;;211.40;;
81229;SDS011;70701;44.452;18.652;2024-01-15T01:10:03;320.57;;;154.43;;
81229;SDS011;70701;44.452;18.652;2024-01-15T01:12:29;363.13;;;171.87;;
81229;SDS011;70701;44.452;18.652;2024-01-15T01:14:55;438.60;;;217.03;;
81229;SDS011;70701;44.452;18.652;2024-01-15T01:17:21;415.10;;;210.83;;
81229;SDS011;70701;44.452;18.652;2024-01-15T01:19:47;427.40;;;211.90;;
81229;SDS011;70701;44.452;18.652;2024-01-15T01:22:12;439.37;;;223.33;;
81229;SDS011;70701;44.452;18.652;2024-01-15T01:24:41;477.20;;;248.90;;
81229;SDS011;70701;44.452;18.652;2024-01-15T01:27:18;453.87;;;238.30;;
81229;SDS011;70701;44.452;18.652;2024-01-15T01:29:47;414.47;;;209.97;;
81229;SDS011;70701;44.452;18.652;2024-01-15T01:32:12;402.90;;;202.83;;
81229;SDS011;70701;44.452;18.652;2024-01-15T01:34:41;353.93;;;168.97;;
81229;SDS011;70701;44.452;18.652;2024-01-15T01:37:13;349.63;;;173.33;;
81229;SDS011;70701;44.452;18.652;2024-01-15T01:39:43;336.43;;;170.93;;
81229;SDS011;70701;44.452;18.652;2024-01-15T01:42:10;321.53;;;166.77;;
81229;SDS011;70701;44.452;18.652;2024-01-15T01:44:36;339.10;;;165.50;;
81229;SDS011;70701;44.452;18.652;2024-01-15T01:47:06;347.37;;;176.83;;
81229;SDS011;70701;44.452;18.652;2024-01-15T01:49:37;365.77;;;180.87;;
81229;SDS011;70701;44.452;18.652;2024-01-15T01:52:06;390.47;;;195.23;;
81229;SDS011;70701;44.452;18.652;2024-01-15T01:54:35;392.47;;;197.00;;
81229;SDS011;70701;44.452;18.652;2024-01-15T01:57:06;436.97;;;223.20;;
81229;SDS011;70701;44.452;18.652;2024-01-15T01:59:36;434.57;;;229.20;;
81229;SDS011;70701;44.452;18.652;2024-01-15T02:05:08;425.63;;;217.37;;
81229;SDS011;70701;44.452;18.652;2024-01-15T02:07:37;424.83;;;224.03;;
81229;SDS011;70701;44.452;18.652;2024-01-15T02:10:05;404.70;;;214.53;;
81229;SDS011;70701;44.452;18.652;2024-01-15T02:12:34;402.33;;;208.00;;
81229;SDS011;70701;44.452;18.652;2024-01-15T02:15:00;392.77;;;209.40;;
81229;SDS011;70701;44.452;18.652;2024-01-15T02:17:29;399.03;;;204.27;;
81229;SDS011;70701;44.452;18.652;2024-01-15T02:19:55;410.77;;;216.57;;
81229;SDS011;70701;44.452;18.652;2024-01-15T02:22:20;412.77;;;213.53;;
81229;SDS011;70701;44.452;18.652;2024-01-15T02:24:49;424.23;;;219.70;;
81229;SDS011;70701;44.452;18.652;2024-01-15T02:27:26;398.83;;;210.20;;
81229;SDS011;70701;44.452;18.652;2024-01-15T02:29:55;413.30;;;215.83;;
81229;SDS011;70701;44.452;18.652;2024-01-15T02:32:24;398.87;;;217.77;;
81229;SDS011;70701;44.452;18.652;2024-01-15T02:34:52;420.70;;;226.27;;
81229;SDS011;70701;44.452;18.652;2024-01-15T02:37:24;425.77;;;222.93;;
81229;SDS011;70701;44.452;18.652;2024-01-15T02:39:53;408.00;;;206.67;;
81229;SDS011;70701;44.452;18.652;2024-01-15T02:42:18;406.77;;;215.70;;
81229;SDS011;70701;44.452;18.652;2024-01-15T02:44:44;396.27;;;208.47;;
81229;SDS011;70701;44.452;18.652;2024-01-15T02:47:28;417.07;;;213.57;;
81229;SDS011;70701;44.452;18.652;2024-01-15T02:52:31;372.27;;;188.63;;
81229;SDS011;70701;44.452;18.652;2024-01-15T02:54:59;397.90;;;196.83;;
81229;SDS011;70701;44.452;18.652;2024-01-15T02:57:28;404.43;;;204.00;;
81229;SDS011;70701;44.452;18.652;2024-01-15T02:59:56;398.13;;;202.80;;
81229;SDS011;70701;44.452;18.652;2024-01-15T03:02:25;405.70;;;206.23;;
81229;SDS011;70701;44.452;18.652;2024-01-15T03:04:50;411.90;;;210.77;;
81229;SDS011;70701;44.452;18.652;2024-01-15T03:07:26;379.20;;;204.43;;
81229;SDS011;70701;44.452;18.652;2024-01-15T03:09:53;381.17;;;189.80;;
81229;SDS011;70701;44.452;18.652;2024-01-15T03:12:22;381.53;;;189.10;;
81229;SDS011;70701;44.452;18.652;2024-01-15T03:14:47;386.43;;;192.00;;
81229;SDS011;70701;44.452;18.652;2024-01-15T03:17:16;357.07;;;181.80;;
81229;SDS011;70701;44.452;18.652;2024-01-15T03:19:44;340.20;;;168.43;;
81229;SDS011;70701;44.452;18.652;2024-01-15T03:22:13;337.20;;;164.00;;
81229;SDS011;70701;44.452;18.652;2024-01-15T03:24:41;328.50;;;168.27;;
81229;SDS011;70701;44.452;18.652;2024-01-15T03:27:19;334.03;;;167.10;;
81229;SDS011;70701;44.452;18.652;2024-01-15T03:29:47;322.07;;;154.83;;
81229;SDS011;70701;44.452;18.652;2024-01-15T03:32:16;316.03;;;157.03;;
81229;SDS011;70701;44.452;18.652;2024-01-15T03:34:44;326.83;;;160.37;;
81229;SDS011;70701;44.452;18.652;2024-01-15T03:37:13;291.13;;;147.80;;
81229;SDS011;70701;44.452;18.652;2024-01-15T03:39:42;294.37;;;142.97;;
81229;SDS011;70701;44.452;18.652;2024-01-15T03:42:07;310.70;;;156.33;;
81229;SDS011;70701;44.452;18.652;2024-01-15T03:47:29;395.53;;;199.93;;
81229;SDS011;70701;44.452;18.652;2024-01-15T03:49:58;392.00;;;201.53;;
81229;SDS011;70701;44.452;18.652;2024-01-15T03:52:24;408.07;;;220.53;;
81229;SDS011;70701;44.452;18.652;2024-01-15T03:54:49;443.53;;;230.80;;
81229;SDS011;70701;44.452;18.652;2024-01-15T03:57:15;391.27;;;209.87;;
81229;SDS011;70701;44.452;18.652;2024-01-15T03:59:40;350.03;;;190.03;;
81229;SDS011;70701;44.452;18.652;2024-01-15T04:02:06;407.97;;;209.50;;
81229;SDS011;70701;44.452;18.652;2024-01-15T04:04:32;376.23;;;199.53;;
81229;SDS011;70701;44.452;18.652;2024-01-15T04:06:58;342.10;;;178.97;;
81229;SDS011;70701;44.452;18.652;2024-01-15T04:09:23;344.40;;;173.77;;
81229;SDS011;70701;44.452;18.652;2024-01-15T04:11:49;299.87;;;144.30;;
81229;SDS011;70701;44.452;18.652;2024-01-15T04:14:15;310.87;;;160.93;;
81229;SDS011;70701;44.452;18.652;2024-01-15T04:16:40;343.90;;;172.27;;
81229;SDS011;70701;44.452;18.652;2024-01-15T04:19:06;345.13;;;175.20;;
81229;SDS011;70701;44.452;18.652;2024-01-15T04:21:32;339.97;;;177.73;;
81229;SDS011;70701;44.452;18.652;2024-01-15T04:23:57;331.20;;;174.03;;
81229;SDS011;70701;44.452;18.652;2024-01-15T04:26:23;305.20;;;149.40;;
81229;SDS011;70701;44.452;18.652;2024-01-15T04:28:49;289.07;;;152.33;;
81229;SDS011;70701;44.452;18.652;2024-01-15T04:31:22;269.77;;;139.23;;
81229;SDS011;70701;44.452;18.652;2024-01-15T04:33:52;282.30;;;142.03;;
81229;SDS011;70701;44.452;18.652;2024-01-15T04:36:24;273.40;;;142.27;;
81229;SDS011;70701;44.452;18.652;2024-01-15T04:38:52;266.47;;;140.10;;
81229;SDS011;70701;44.452;18.652;2024-01-15T04:41:18;262.70;;;133.93;;
81229;SDS011;70701;44.452;18.652;2024-01-15T04:43:43;248.50;;;130.63;;
81229;SDS011;70701;44.452;18.652;2024-01-15T04:46:27;258.00;;;132.50;;
81229;SDS011;70701;44.452;18.652;2024-01-15T04:48:56;259.25;;;133.35;;
81229;SDS011;70701;44.452;18.652;2024-01-15T04:51:24;250.30;;;130.67;;
81229;SDS011;70701;44.452;18.652;2024-01-15T04:54:08;264.27;;;137.80;;
81229;SDS011;70701;44.452;18.652;2024-01-15T04:56:42;266.05;;;132.13;;
81229;SDS011;70701;44.452;18.652;2024-01-15T04:59:12;253.17;;;134.27;;
81229;SDS011;70701;44.452;18.652;2024-01-15T05:01:42;276.33;;;142.60;;
81229;SDS011;70701;44.452;18.652;2024-01-15T05:04:11;278.33;;;148.53;;
81229;SDS011;70701;44.452;18.652;2024-01-15T05:06:39;303.73;;;154.17;;
81229;SDS011;70701;44.452;18.652;2024-01-15T05:12:11;317.27;;;160.97;;
81229;SDS011;70701;44.452;18.652;2024-01-15T05:14:40;325.13;;;162.80;;
81229;SDS011;70701;44.452;18.652;2024-01-15T05:17:08;316.10;;;165.83;;
81229;SDS011;70701;44.452;18.652;2024-01-15T05:19:34;305.30;;;154.47;;
81229;SDS011;70701;44.452;18.652;2024-01-15T05:22:03;294.90;;;155.10;;
81229;SDS011;70701;44.452;18.652;2024-01-15T05:24:31;299.53;;;160.23;;
81229;SDS011;70701;44.452;18.652;2024-01-15T05:27:02;310.73;;;162.77;;
81229;SDS011;70701;44.452;18.652;2024-01-15T05:29:31;322.60;;;158.37;;
81229;SDS011;70701;44.452;18.652;2024-01-15T05:32:00;317.77;;;160.27;;
81229;SDS011;70701;44.452;18.652;2024-01-15T05:34:38;339.80;;;182.93;;
81229;SDS011;70701;44.452;18.652;2024-01-15T05:37:06;350.30;;;183.67;;
81229;SDS011;70701;44.452;18.652;2024-01-15T05:39:37;349.37;;;191.47;;
81229;SDS011;70701;44.452;18.652;2024-01-15T05:42:03;390.33;;;199.87;;
81229;SDS011;70701;44.452;18.652;2024-01-15T05:44:29;337.37;;;177.73;;
81229;SDS011;70701;44.452;18.652;2024-01-15T05:47:00;344.83;;;173.13;;
81229;SDS011;70701;44.452;18.652;2024-01-15T05:49:29;345.70;;;186.50;;
81229;SDS011;70701;44.452;18.652;2024-01-15T05:51:58;393.13;;;192.83;;
81229;SDS011;70701;44.452;18.652;2024-01-15T05:57:36;347.40;;;176.53;;
81229;SDS011;70701;44.452;18.652;2024-01-15T06:00:05;364.80;;;193.93;;
81229;SDS011;70701;44.452;18.652;2024-01-15T06:02:35;357.87;;;185.83;;
81229;SDS011;70701;44.452;18.652;2024-01-15T06:05:05;351.37;;;182.37;;
81229;SDS011;70701;44.452;18.652;2024-01-15T06:07:31;357.70;;;188.73;;
81229;SDS011;70701;44.452;18.652;2024-01-15T06:10:01;382.03;;;200.50;;
81229;SDS011;70701;44.452;18.652;2024-01-15T06:12:30;439.40;;;227.57;;
81229;SDS011;70701;44.452;18.652;2024-01-15T06:17:44;477.80;;;270.93;;
81229;SDS011;70701;44.452;18.652;2024-01-15T06:20:10;474.83;;;250.33;;
81229;SDS011;70701;44.452;18.652;2024-01-15T06:22:37;425.47;;;228.23;;
81229;SDS011;70701;44.452;18.652;2024-01-15T06:25:05;384.27;;;203.90;;
81229;SDS011;70701;44.452;18.652;2024-01-15T06:27:34;353.50;;;185.10;;
81229;SDS011;70701;44.452;18.652;2024-01-15T06:29:59;316.67;;;161.33;;
81229;SDS011;70701;44.452;18.652;2024-01-15T06:32:25;305.87;;;159.13;;
81229;SDS011;70701;44.452;18.652;2024-01-15T06:34:50;305.47;;;155.20;;
81229;SDS011;70701;44.452;18.652;2024-01-15T06:37:19;287.30;;;148.03;;
81229;SDS011;70701;44.452;18.652;2024-01-15T06:42:41;245.83;;;132.20;;
81229;SDS011;70701;44.452;18.652;2024-01-15T06:45:08;251.83;;;135.17;;
81229;SDS011;70701;44.452;18.652;2024-01-15T06:47:34;254.23;;;134.23;;
81229;SDS011;70701;44.452;18.652;2024-01-15T06:50:00;271.03;;;144.00;;
81229;SDS011;70701;44.452;18.652;2024-01-15T06:52:25;283.73;;;149.77;;
81229;SDS011;70701;44.452;18.652;2024-01-15T06:54:51;300.57;;;154.83;;
81229;SDS011;70701;44.452;18.652;2024-01-15T06:57:16;282.93;;;150.00;;
81229;SDS011;70701;44.452;18.652;2024-01-15T06:59:42;292.80;;;156.37;;
81229;SDS011;70701;44.452;18.652;2024-01-15T07:02:07;250.73;;;132.90;;
81229;SDS011;70701;44.452;18.652;2024-01-15T07:04:33;289.90;;;156.40;;
81229;SDS011;70701;44.452;18.652;2024-01-15T07:06:58;357.07;;;199.60;;
81229;SDS011;70701;44.452;18.652;2024-01-15T07:09:24;367.00;;;203.33;;
81229;SDS011;70701;44.452;18.652;2024-01-15T07:11:49;380.70;;;211.73;;
81229;SDS011;70701;44.452;18.652;2024-01-15T07:14:15;407.13;;;214.13;;
81229;SDS011;70701;44.452;18.652;2024-01-15T07:16:40;427.47;;;228.00;;
81229;SDS011;70701;44.452;18.652;2024-01-15T07:19:06;426.70;;;224.73;;
81229;SDS011;70701;44.452;18.652;2024-01-15T07:21:31;460.40;;;254.90;;
81229;SDS011;70701;44.452;18.652;2024-01-15T07:23:57;477.03;;;262.17;;
81229;SDS011;70701;44.452;18.652;2024-01-15T07:26:22;499.67;;;270.77;;
81229;SDS011;70701;44.452;18.652;2024-01-15T07:28:48;490.23;;;277.73;;
81229;SDS011;70701;44.452;18.652;2024-01-15T07:31:15;482.27;;;266.40;;
81229;SDS011;70701;44.452;18.652;2024-01-15T07:33:41;425.53;;;230.53;;
81229;SDS011;70701;44.452;18.652;2024-01-15T07:36:07;408.87;;;217.97;;
81229;SDS011;70701;44.452;18.652;2024-01-15T07:38:32;398.63;;;208.47;;
81229;SDS011;70701;44.452;18.652;2024-01-15T07:40:58;374.93;;;194.50;;
81229;SDS011;70701;44.452;18.652;2024-01-15T07:43:24;382.37;;;190.90;;
81229;SDS011;70701;44.452;18.652;2024-01-15T07:45:49;385.17;;;196.20;;
81229;SDS011;70701;44.452;18.652;2024-01-15T07:48:16;434.87;;;232.23;;
81229;SDS011;70701;44.452;18.652;2024-01-15T07:50:41;418.30;;;221.53;;
81229;SDS011;70701;44.452;18.652;2024-01-15T07:53:08;402.13;;;203.80;;
81229;SDS011;70701;44.452;18.652;2024-01-15T07:55:34;396.10;;;218.83;;
81229;SDS011;70701;44.452;18.652;2024-01-15T07:57:59;419.10;;;225.00;;
81229;SDS011;70701;44.452;18.652;2024-01-15T08:00:26;423.90;;;231.77;;
81229;SDS011;70701;44.452;18.652;2024-01-15T08:02:52;470.60;;;266.87;;
81229;SDS011;70701;44.452;18.652;2024-01-15T08:05:18;462.13;;;263.43;;
81229;SDS011;70701;44.452;18.652;2024-01-15T08:07:44;461.73;;;258.03;;
81229;SDS011;70701;44.452;18.652;2024-01-15T08:10:09;444.43;;;246.23;;
81229;SDS011;70701;44.452;18.652;2024-01-15T08:12:35;444.20;;;254.33;;
81229;SDS011;70701;44.452;18.652;2024-01-15T08:15:00;456.27;;;261.10;;
81229;SDS011;70701;44.452;18.652;2024-01-15T08:17:26;430.07;;;247.90;;
81229;SDS011;70701;44.452;18.652;2024-01-15T08:19:54;533.93;;;306.70;;
81229;SDS011;70701;44.452;18.652;2024-01-15T08:22:19;533.43;;;302.37;;
81229;SDS011;70701;44.452;18.652;2024-01-15T08:24:45;485.30;;;276.93;;
81229;SDS011;70701;44.452;18.652;2024-01-15T08:27:11;475.77;;;274.90;;
81229;SDS011;70701;44.452;18.652;2024-01-15T08:29:36;453.07;;;256.20;;
81229;SDS011;70701;44.452;18.652;2024-01-15T08:32:02;456.87;;;268.70;;
81229;SDS011;70701;44.452;18.652;2024-01-15T08:34:28;449.10;;;259.33;;
81229;SDS011;70701;44.452;18.652;2024-01-15T08:36:53;467.07;;;276.50;;
81229;SDS011;70701;44.452;18.652;2024-01-15T08:39:19;401.83;;;225.90;;
81229;SDS011;70701;44.452;18.652;2024-01-15T08:41:44;375.83;;;212.53;;
81229;SDS011;70701;44.452;18.652;2024-01-15T08:44:11;391.17;;;209.00;;
81229;SDS011;70701;44.452;18.652;2024-01-15T08:46:37;386.47;;;205.87;;
81229;SDS011;70701;44.452;18.652;2024-01-15T08:49:03;372.77;;;198.13;;
81229;SDS011;70701;44.452;18.652;2024-01-15T08:51:44;368.37;;;199.03;;
81229;SDS011;70701;44.452;18.652;2024-01-15T08:54:09;324.60;;;170.63;;
81229;SDS011;70701;44.452;18.652;2024-01-15T08:56:35;294.03;;;157.80;;
81229;SDS011;70701;44.452;18.652;2024-01-15T08:59:01;316.60;;;167.83;;
81229;SDS011;70701;44.452;18.652;2024-01-15T09:01:26;306.43;;;159.93;;
81229;SDS011;70701;44.452;18.652;2024-01-15T09:04:01;300.10;;;159.90;;
81229;SDS011;70701;44.452;18.652;2024-01-15T09:06:26;314.50;;;161.93;;
81229;SDS011;70701;44.452;18.652;2024-01-15T09:08:55;295.83;;;153.77;;
81229;SDS011;70701;44.452;18.652;2024-01-15T09:11:20;270.07;;;143.43;;
81229;SDS011;70701;44.452;18.652;2024-01-15T09:13:55;267.57;;;141.67;;
81229;SDS011;70701;44.452;18.652;2024-01-15T09:16:20;257.73;;;143.27;;
81229;SDS011;70701;44.452;18.652;2024-01-15T09:18:46;234.37;;;131.63;;
81229;SDS011;70701;44.452;18.652;2024-01-15T09:21:12;241.70;;;124.27;;
81229;SDS011;70701;44.452;18.652;2024-01-15T09:23:37;243.10;;;124.60;;
81229;SDS011;70701;44.452;18.652;2024-01-15T09:26:03;262.00;;;132.00;;
81229;SDS011;70701;44.452;18.652;2024-01-15T09:28:29;240.90;;;125.23;;
81229;SDS011;70701;44.452;18.652;2024-01-15T09:30:54;244.13;;;127.60;;
81229;SDS011;70701;44.452;18.652;2024-01-15T09:33:20;225.70;;;124.60;;
81229;SDS011;70701;44.452;18.652;2024-01-15T09:35:45;248.43;;;130.93;;
81229;SDS011;70701;44.452;18.652;2024-01-15T09:38:11;258.60;;;133.70;;
81229;SDS011;70701;44.452;18.652;2024-01-15T09:40:38;254.20;;;133.90;;
81229;SDS011;70701;44.452;18.652;2024-01-15T09:43:04;241.60;;;130.87;;
81229;SDS011;70701;44.452;18.652;2024-01-15T09:45:30;261.63;;;136.97;;
81229;SDS011;70701;44.452;18.652;2024-01-15T09:47:56;282.80;;;152.77;;
81229;SDS011;70701;44.452;18.652;2024-01-15T09:50:22;316.90;;;166.93;;
81229;SDS011;70701;44.452;18.652;2024-01-15T09:52:47;314.33;;;176.50;;
81229;SDS011;70701;44.452;18.652;2024-01-15T09:55:14;288.73;;;169.03;;
81229;SDS011;70701;44.452;18.652;2024-01-15T09:57:41;309.97;;;169.13;;
81229;SDS011;70701;44.452;18.652;2024-01-15T10:00:09;335.80;;;179.77;;
81229;SDS011;70701;44.452;18.652;2024-01-15T10:02:37;339.10;;;185.47;;
81229;SDS011;70701;44.452;18.652;2024-01-15T10:05:03;347.17;;;189.87;;
81229;SDS011;70701;44.452;18.652;2024-01-15T10:07:30;342.73;;;190.97;;
81229;SDS011;70701;44.452;18.652;2024-01-15T10:09:58;298.60;;;160.30;;
81229;SDS011;70701;44.452;18.652;2024-01-15T10:12:24;250.77;;;141.37;;
81229;SDS011;70701;44.452;18.652;2024-01-15T10:14:52;219.77;;;128.53;;
81229;SDS011;70701;44.452;18.652;2024-01-15T10:17:18;242.20;;;134.83;;
81229;SDS011;70701;44.452;18.652;2024-01-15T10:19:46;309.07;;;172.53;;
81229;SDS011;70701;44.452;18.652;2024-01-15T10:22:13;336.47;;;178.80;;
81229;SDS011;70701;44.452;18.652;2024-01-15T10:24:40;354.10;;;201.27;;
81229;SDS011;70701;44.452;18.652;2024-01-15T10:27:06;365.93;;;205.97;;
81229;SDS011;70701;44.452;18.652;2024-01-15T10:29:34;315.77;;;180.63;;
81229;SDS011;70701;44.452;18.652;2024-01-15T10:32:00;304.23;;;171.83;;
81229;SDS011;70701;44.452;18.652;2024-01-15T10:34:26;263.83;;;148.70;;
81229;SDS011;70701;44.452;18.652;2024-01-15T10:36:52;240.53;;;137.67;;
81229;SDS011;70701;44.452;18.652;2024-01-15T10:39:23;239.37;;;140.73;;
81229;SDS011;70701;44.452;18.652;2024-01-15T10:41:50;273.40;;;154.00;;
81229;SDS011;70701;44.452;18.652;2024-01-15T10:44:16;253.77;;;139.50;;
81229;SDS011;70701;44.452;18.652;2024-01-15T10:46:43;249.37;;;140.63;;
81229;SDS011;70701;44.452;18.652;2024-01-15T10:49:09;272.87;;;150.83;;
81229;SDS011;70701;44.452;18.652;2024-01-15T10:51:36;297.20;;;167.27;;
81229;SDS011;70701;44.452;18.652;2024-01-15T10:54:03;290.73;;;163.63;;
81229;SDS011;70701;44.452;18.652;2024-01-15T10:56:31;341.67;;;199.10;;
81229;SDS011;70701;44.452;18.652;2024-01-15T10:58:59;319.57;;;181.50;;
81229;SDS011;70701;44.452;18.652;2024-01-15T11:01:25;356.80;;;209.53;;
81229;SDS011;70701;44.452;18.652;2024-01-15T11:03:51;407.87;;;238.87;;
81229;SDS011;70701;44.452;18.652;2024-01-15T11:06:17;378.77;;;218.40;;
81229;SDS011;70701;44.452;18.652;2024-01-15T11:08:48;375.30;;;213.47;;
81229;SDS011;70701;44.452;18.652;2024-01-15T11:11:17;375.63;;;218.97;;
81229;SDS011;70701;44.452;18.652;2024-01-15T11:13:43;375.70;;;222.83;;
81229;SDS011;70701;44.452;18.652;2024-01-15T11:16:14;372.00;;;217.17;;
81229;SDS011;70701;44.452;18.652;2024-01-15T11:18:43;376.93;;;217.70;;
81229;SDS011;70701;44.452;18.652;2024-01-15T11:21:27;405.37;;;241.27;;
81229;SDS011;70701;44.452;18.652;2024-01-15T11:23:58;419.80;;;253.80;;
81229;SDS011;70701;44.452;18.652;2024-01-15T11:29:06;413.67;;;245.53;;
81229;SDS011;70701;44.452;18.652;2024-01-15T11:34:02;370.67;;;212.70;;
81229;SDS011;70701;44.452;18.652;2024-01-15T11:41:57;316.13;;;178.83;;
81229;SDS011;70701;44.452;18.652;2024-01-15T11:44:22;314.67;;;173.50;;
81229;SDS011;70701;44.452;18.652;2024-01-15T11:47:07;340.60;;;184.10;;
81229;SDS011;70701;44.452;18.652;2024-01-15T11:52:21;325.35;;;188.48;;
81229;SDS011;70701;44.452;18.652;2024-01-15T11:58:00;339.63;;;190.60;;
81229;SDS011;70701;44.452;18.652;2024-01-15T12:00:28;338.97;;;191.33;;
81229;SDS011;70701;44.452;18.652;2024-01-15T12:03:19;340.40;;;192.70;;
81229;SDS011;70701;44.452;18.652;2024-01-15T12:05:48;333.83;;;188.57;;
81229;SDS011;70701;44.452;18.652;2024-01-15T12:08:13;342.77;;;191.40;;
81229;SDS011;70701;44.452;18.652;2024-01-15T12:10:39;329.20;;;186.77;;
81229;SDS011;70701;44.452;18.652;2024-01-15T12:15:44;342.70;;;200.80;;
81229;SDS011;70701;44.452;18.652;2024-01-15T12:18:12;328.93;;;187.60;;
81229;SDS011;70701;44.452;18.652;2024-01-15T12:20:39;313.13;;;187.63;;
81229;SDS011;70701;44.452;18.652;2024-01-15T12:23:05;327.03;;;191.87;;
81229;SDS011;70701;44.452;18.652;2024-01-15T12:25:31;344.70;;;193.47;;
81229;SDS011;70701;44.452;18.652;2024-01-15T12:27:59;312.43;;;178.80;;
81229;SDS011;70701;44.452;18.652;2024-01-15T12:30:29;308.90;;;178.27;;
81229;SDS011;70701;44.452;18.652;2024-01-15T12:32:57;284.50;;;162.57;;
81229;SDS011;70701;44.452;18.652;2024-01-15T12:35:23;273.57;;;158.47;;
81229;SDS011;70701;44.452;18.652;2024-01-15T12:37:51;264.23;;;153.33;;
81229;SDS011;70701;44.452;18.652;2024-01-15T12:40:20;278.57;;;157.30;;
81229;SDS011;70701;44.452;18.652;2024-01-15T12:42:46;280.97;;;163.90;;
81229;SDS011;70701;44.452;18.652;2024-01-15T12:45:12;260.60;;;153.17;;
81229;SDS011;70701;44.452;18.652;2024-01-15T12:47:39;335.50;;;190.27;;
81229;SDS011;70701;44.452;18.652;2024-01-15T12:50:11;303.67;;;178.33;;
81229;SDS011;70701;44.452;18.652;2024-01-15T12:52:40;312.40;;;181.00;;
81229;SDS011;70701;44.452;18.652;2024-01-15T12:55:07;327.67;;;182.37;;
81229;SDS011;70701;44.452;18.652;2024-01-15T12:57:37;379.23;;;223.20;;
81229;SDS011;70701;44.452;18.652;2024-01-15T13:00:06;383.53;;;231.00;;
81229;SDS011;70701;44.452;18.652;2024-01-15T13:02:36;369.10;;;212.55;;
81229;SDS011;70701;44.452;18.652;2024-01-15T13:05:03;371.17;;;220.23;;
81229;SDS011;70701;44.452;18.652;2024-01-15T13:07:29;367.60;;;217.00;;
81229;SDS011;70701;44.452;18.652;2024-01-15T13:09:55;346.90;;;205.30;;
81229;SDS011;70701;44.452;18.652;2024-01-15T13:12:20;359.33;;;200.20;;
81229;SDS011;70701;44.452;18.652;2024-01-15T13:14:47;330.13;;;188.00;;
81229;SDS011;70701;44.452;18.652;2024-01-15T13:17:13;326.10;;;188.63;;
81229;SDS011;70701;44.452;18.652;2024-01-15T13:19:41;347.57;;;208.20;;
81229;SDS011;70701;44.452;18.652;2024-01-15T13:22:07;351.20;;;202.13;;
81229;SDS011;70701;44.452;18.652;2024-01-15T13:24:34;335.27;;;198.90;;
81229;SDS011;70701;44.452;18.652;2024-01-15T13:27:02;360.37;;;208.10;;
81229;SDS011;70701;44.452;18.652;2024-01-15T13:29:29;389.77;;;228.67;;
81229;SDS011;70701;44.452;18.652;2024-01-15T13:31:55;412.43;;;253.47;;
81229;SDS011;70701;44.452;18.652;2024-01-15T13:34:21;620.40;;;366.63;;
81229;SDS011;70701;44.452;18.652;2024-01-15T13:36:47;582.83;;;354.83;;
81229;SDS011;70701;44.452;18.652;2024-01-15T13:39:12;462.67;;;288.10;;
81229;SDS011;70701;44.452;18.652;2024-01-15T13:41:38;439.00;;;274.97;;
81229;SDS011;70701;44.452;18.652;2024-01-15T13:44:04;433.67;;;278.10;;
81229;SDS011;70701;44.452;18.652;2024-01-15T13:46:29;430.70;;;269.00;;
81229;SDS011;70701;44.452;18.652;2024-01-15T13:48:55;426.97;;;271.93;;
81229;SDS011;70701;44.452;18.652;2024-01-15T13:51:21;452.67;;;282.17;;
81229;SDS011;70701;44.452;18.652;2024-01-15T13:53:47;468.40;;;302.37;;
81229;SDS011;70701;44.452;18.652;2024-01-15T13:56:13;506.80;;;322.23;;
81229;SDS011;70701;44.452;18.652;2024-01-15T13:58:38;510.50;;;326.37;;
81229;SDS011;70701;44.452;18.652;2024-01-15T14:01:04;493.40;;;310.73;;
81229;SDS011;70701;44.452;18.652;2024-01-15T14:03:31;491.27;;;319.60;;
81229;SDS011;70701;44.452;18.652;2024-01-15T14:05:57;483.87;;;310.90;;
81229;SDS011;70701;44.452;18.652;2024-01-15T14:08:23;470.30;;;302.10;;
81229;SDS011;70701;44.452;18.652;2024-01-15T14:10:49;461.97;;;298.23;;
81229;SDS011;70701;44.452;18.652;2024-01-15T14:13:15;451.07;;;286.73;;
81229;SDS011;70701;44.452;18.652;2024-01-15T14:15:40;452.37;;;275.20;;
81229;SDS011;70701;44.452;18.652;2024-01-15T14:18:06;456.60;;;280.33;;
81229;SDS011;70701;44.452;18.652;2024-01-15T14:20:32;485.80;;;294.83;;
81229;SDS011;70701;44.452;18.652;2024-01-15T14:22:58;465.77;;;287.70;;
81229;SDS011;70701;44.452;18.652;2024-01-15T14:25:24;437.00;;;275.43;;